sensor_id;sensor_type;location;lat;lon;timestamp;P1;durP1;ratioP1;P2;durP2;ratioP2
31910;SDS011;18457;52.432;16.914;2023-08-12T00:02:29;11.70;;;7.90;;
31910;SDS011;18457;52.432;16.914;2023-08-12T00:05:01;11.80;;;8.30;;
31910;SDS011;18457;52.432;16.914;2023-08-12T00:10:04;15.10;;;8.80;;
31910;SDS011;18457;52.432;16.914;2023-08-12T00:12:37;15.90;;;8.80;;
31910;SDS011;18457;52.432;16.914;2023-08-12T00:15:10;15.60;;;8.60;;
31910;SDS011;18457;52.432;16.914;2023-08-12T00:17:42;14.10;;;8.70;;
31910;SDS011;18457;52.432;16.914;2023-08-12T00:20:14;11.80;;;8.20;;
31910;SDS011;18457;52.432;16.914;2023-08-12T00:22:46;13.00;;;8.70;;
31910;SDS011;18457;52.432;16.914;2023-08-12T00:25:18;19.80;;;8.90;;
31910;SDS011;18457;52.432;16.914;2023-08-12T00:27:50;16.60;;;9.30;;
31910;SDS011;18457;52.432;16.914;2023-08-12T00:30:22;11.00;;;8.70;;
31910;SDS011;18457;52.432;16.914;2023-08-12T00:32:54;15.30;;;8.60;;
31910;SDS011;18457;52.432;16.914;2023-08-12T00:35:25;16.60;;;8.10;;
31910;SDS011;18457;52.432;16.914;2023-08-12T00:37:57;16.80;;;9.70;;
31910;SDS011;18457;52.432;16.914;2023-08-12T00:40:29;12.50;;;9.00;;
31910;SDS011;18457;52.432;16.914;2023-08-12T00:43:01;17.80;;;9.70;;
31910;SDS011;18457;52.432;16.914;2023-08-12T00:45:33;17.70;;;9.50;;
31910;SDS011;18457;52.432;16.914;2023-08-12T00:48:06;14.50;;;9.20;;
31910;SDS011;18457;52.432;16.914;2023-08-12T00:50:42;17.10;;;9.50;;
31910;SDS011;18457;52.432;16.914;2023-08-12T00:53:15;15.60;;;9.90;;
31910;SDS011;18457;52.432;16.914;2023-08-12T00:55:48;13.80;;;10.00;;
31910;SDS011;18457;52.432;16.914;2023-08-12T00:58:20;17.30;;;9.30;;
31910;SDS011;18457;52.432;16.914;2023-08-12T01:00:52;16.20;;;10.00;;
31910;SDS011;18457;52.432;16.914;2023-08-12T01:03:24;17.50;;;10.40;;
31910;SDS011;18457;52.432;16.914;2023-08-12T01:08:55;13.50;;;10.20;;
31910;SDS011;18457;52.432;16.914;2023-08-12T01:11:28;19.90;;;10.70;;
31910;SDS011;18457;52.432;16.914;2023-08-12T01:14:06;16.70;;;10.50;;
31910;SDS011;18457;52.432;16.914;2023-08-12T01:16:44;19.50;;;11.30;;
31910;SDS011;18457;52.432;16.914;2023-08-12T01:19:22;16.90;;;10.70;;
31910;SDS011;18457;52.432;16.914;2023-08-12T01:22:00;16.90;;;10.90;;
31910;SDS011;18457;52.432;16.914;2023-08-12T01:24:37;14.00;;;9.50;;
31910;SDS011;18457;52.432;16.914;2023-08-12T01:27:10;21.80;;;11.30;;
31910;SDS011;18457;52.432;16.914;2023-08-12T01:29:44;19.80;;;11.50;;
31910;SDS011;18457;52.432;16.914;2023-08-12T01:32:22;15.50;;;10.60;;
31910;SDS011;18457;52.432;16.914;2023-08-12T01:35:02;17.50;;;12.00;;
31910;SDS011;18457;52.432;16.914;2023-08-12T01:37:39;21.20;;;12.10;;
31910;SDS011;18457;52.432;16.914;2023-08-12T01:40:12;20.80;;;12.00;;
31910;SDS011;18457;52.432;16.914;2023-08-12T01:42:46;18.70;;;11.90;;
31910;SDS011;18457;52.432;16.914;2023-08-12T01:45:20;18.80;;;12.40;;
31910;SDS011;18457;52.432;16.914;2023-08-12T01:47:52;13.60;;;8.40;;
31910;SDS011;18457;52.432;16.914;2023-08-12T01:50:24;17.00;;;11.60;;
31910;SDS011;18457;52.432;16.914;2023-08-12T01:52:56;14.20;;;11.80;;
31910;SDS011;18457;52.432;16.914;2023-08-12T01:55:31;22.20;;;11.20;;
31910;SDS011;18457;52.432;16.914;2023-08-12T02:03:06;20.90;;;12.30;;
31910;SDS011;18457;52.432;16.914;2023-08-12T02:05:39;19.30;;;12.80;;
31910;SDS011;18457;52.432;16.914;2023-08-12T02:08:12;18.50;;;12.90;;
31910;SDS011;18457;52.432;16.914;2023-08-12T02:10:46;17.60;;;12.30;;
31910;SDS011;18457;52.432;16.914;2023-08-12T02:13:18;20.40;;;13.00;;
31910;SDS011;18457;52.432;16.914;2023-08-12T02:15:50;20.20;;;12.80;;
31910;SDS011;18457;52.432;16.914;2023-08-12T02:18:24;17.10;;;11.90;;
31910;SDS011;18457;52.432;16.914;2023-08-12T02:20:56;18.30;;;13.20;;
31910;SDS011;18457;52.432;16.914;2023-08-12T02:23:53;22.20;;;12.30;;
31910;SDS011;18457;52.432;16.914;2023-08-12T02:26:25;19.80;;;12.20;;
31910;SDS011;18457;52.432;16.914;2023-08-12T02:28:57;17.90;;;12.20;;
31910;SDS011;18457;52.432;16.914;2023-08-12T02:31:29;20.90;;;12.80;;
31910;SDS011;18457;52.432;16.914;2023-08-12T02:34:00;18.50;;;12.80;;
31910;SDS011;18457;52.432;16.914;2023-08-12T02:36:32;20.10;;;12.10;;
31910;SDS011;18457;52.432;16.914;2023-08-12T02:39:04;18.40;;;12.80;;
31910;SDS011;18457;52.432;16.914;2023-08-12T02:41:36;15.00;;;11.70;;
31910;SDS011;18457;52.432;16.914;2023-08-12T02:44:08;19.70;;;12.80;;
31910;SDS011;18457;52.432;16.914;2023-08-12T02:46:40;20.00;;;13.70;;
31910;SDS011;18457;52.432;16.914;2023-08-12T02:49:11;18.70;;;12.80;;
31910;SDS011;18457;52.432;16.914;2023-08-12T02:51:43;21.90;;;13.40;;
31910;SDS011;18457;52.432;16.914;2023-08-12T02:54:15;21.60;;;13.40;;
31910;SDS011;18457;52.432;16.914;2023-08-12T02:56:47;17.30;;;12.90;;
31910;SDS011;18457;52.432;16.914;2023-08-12T03:01:50;15.90;;;12.90;;
31910;SDS011;18457;52.432;16.914;2023-08-12T03:04:22;16.60;;;12.30;;
31910;SDS011;18457;52.432;16.914;2023-08-12T03:06:53;18.80;;;14.00;;
31910;SDS011;18457;52.432;16.914;2023-08-12T03:09:25;19.60;;;13.40;;
31910;SDS011;18457;52.432;16.914;2023-08-12T03:11:57;26.90;;;13.70;;
31910;SDS011;18457;52.432;16.914;2023-08-12T03:14:31;16.60;;;13.00;;
31910;SDS011;18457;52.432;16.914;2023-08-12T03:17:04;20.60;;;12.60;;
31910;SDS011;18457;52.432;16.914;2023-08-12T03:19:39;17.30;;;11.80;;
31910;SDS011;18457;52.432;16.914;2023-08-12T03:22:11;21.20;;;13.80;;
31910;SDS011;18457;52.432;16.914;2023-08-12T03:24:43;18.80;;;14.10;;
31910;SDS011;18457;52.432;16.914;2023-08-12T03:27:15;24.20;;;14.80;;
31910;SDS011;18457;52.432;16.914;2023-08-12T03:29:47;22.90;;;13.20;;
31910;SDS011;18457;52.432;16.914;2023-08-12T03:32:19;21.60;;;13.00;;
31910;SDS011;18457;52.432;16.914;2023-08-12T03:34:51;28.30;;;14.80;;
31910;SDS011;18457;52.432;16.914;2023-08-12T03:37:24;18.00;;;14.20;;
31910;SDS011;18457;52.432;16.914;2023-08-12T03:39:57;19.20;;;13.60;;
31910;SDS011;18457;52.432;16.914;2023-08-12T03:42:29;21.10;;;13.30;;
31910;SDS011;18457;52.432;16.914;2023-08-12T03:45:01;23.90;;;14.40;;
31910;SDS011;18457;52.432;16.914;2023-08-12T03:47:34;18.80;;;13.90;;
31910;SDS011;18457;52.432;16.914;2023-08-12T03:50:06;20.00;;;13.90;;
31910;SDS011;18457;52.432;16.914;2023-08-12T03:52:39;18.10;;;13.50;;
31910;SDS011;18457;52.432;16.914;2023-08-12T03:55:11;29.30;;;15.00;;
31910;SDS011;18457;52.432;16.914;2023-08-12T03:57:43;20.50;;;13.50;;
31910;SDS011;18457;52.432;16.914;2023-08-12T04:00:15;23.50;;;14.30;;
31910;SDS011;18457;52.432;16.914;2023-08-12T04:02:47;18.40;;;14.10;;
31910;SDS011;18457;52.432;16.914;2023-08-12T04:05:20;21.90;;;13.30;;
31910;SDS011;18457;52.432;16.914;2023-08-12T04:07:52;27.10;;;14.70;;
31910;SDS011;18457;52.432;16.914;2023-08-12T04:10:24;20.60;;;15.30;;
31910;SDS011;18457;52.432;16.914;2023-08-12T04:12:56;21.90;;;14.50;;
31910;SDS011;18457;52.432;16.914;2023-08-12T04:15:28;20.50;;;14.90;;
31910;SDS011;18457;52.432;16.914;2023-08-12T04:18:00;19.10;;;15.30;;
31910;SDS011;18457;52.432;16.914;2023-08-12T04:20:32;24.10;;;16.00;;
31910;SDS011;18457;52.432;16.914;2023-08-12T04:23:04;23.10;;;14.20;;
31910;SDS011;18457;52.432;16.914;2023-08-12T04:25:37;24.90;;;14.60;;
31910;SDS011;18457;52.432;16.914;2023-08-12T04:28:09;29.60;;;15.40;;
31910;SDS011;18457;52.432;16.914;2023-08-12T04:30:44;22.10;;;15.80;;
31910;SDS011;18457;52.432;16.914;2023-08-12T04:33:17;20.00;;;14.10;;
31910;SDS011;18457;52.432;16.914;2023-08-12T04:35:50;20.00;;;14.80;;
31910;SDS011;18457;52.432;16.914;2023-08-12T04:38:24;27.90;;;15.80;;
31910;SDS011;18457;52.432;16.914;2023-08-12T04:40:57;22.00;;;15.80;;
31910;SDS011;18457;52.432;16.914;2023-08-12T04:43:54;26.40;;;15.20;;
31910;SDS011;18457;52.432;16.914;2023-08-12T04:46:28;26.00;;;15.20;;
31910;SDS011;18457;52.432;16.914;2023-08-12T04:49:00;20.80;;;15.20;;
31910;SDS011;18457;52.432;16.914;2023-08-12T04:51:32;26.10;;;15.90;;
31910;SDS011;18457;52.432;16.914;2023-08-12T04:54:04;23.40;;;16.40;;
31910;SDS011;18457;52.432;16.914;2023-08-12T04:56:37;21.80;;;14.70;;
31910;SDS011;18457;52.432;16.914;2023-08-12T04:59:08;26.70;;;16.20;;
31910;SDS011;18457;52.432;16.914;2023-08-12T05:01:40;23.80;;;16.10;;
31910;SDS011;18457;52.432;16.914;2023-08-12T05:04:32;23.00;;;15.00;;
31910;SDS011;18457;52.432;16.914;2023-08-12T05:07:05;24.00;;;16.30;;
31910;SDS011;18457;52.432;16.914;2023-08-12T05:09:37;21.00;;;15.40;;
31910;SDS011;18457;52.432;16.914;2023-08-12T05:12:09;23.20;;;15.40;;
31910;SDS011;18457;52.432;16.914;2023-08-12T05:14:42;23.30;;;16.50;;
31910;SDS011;18457;52.432;16.914;2023-08-12T05:17:14;15.70;;;11.40;;
31910;SDS011;18457;52.432;16.914;2023-08-12T05:19:46;30.80;;;15.00;;
31910;SDS011;18457;52.432;16.914;2023-08-12T05:22:18;18.00;;;14.60;;
31910;SDS011;18457;52.432;16.914;2023-08-12T05:24:50;23.70;;;16.10;;
31910;SDS011;18457;52.432;16.914;2023-08-12T05:27:22;23.10;;;14.30;;
31910;SDS011;18457;52.432;16.914;2023-08-12T05:29:54;21.60;;;14.10;;
31910;SDS011;18457;52.432;16.914;2023-08-12T05:32:25;20.30;;;14.00;;
31910;SDS011;18457;52.432;16.914;2023-08-12T05:34:57;20.80;;;15.40;;
31910;SDS011;18457;52.432;16.914;2023-08-12T05:37:29;19.70;;;14.90;;
31910;SDS011;18457;52.432;16.914;2023-08-12T05:40:01;19.70;;;14.80;;
31910;SDS011;18457;52.432;16.914;2023-08-12T05:42:37;24.70;;;14.40;;
31910;SDS011;18457;52.432;16.914;2023-08-12T05:45:09;30.20;;;14.90;;
31910;SDS011;18457;52.432;16.914;2023-08-12T05:47:41;28.30;;;15.00;;
31910;SDS011;18457;52.432;16.914;2023-08-12T05:50:13;20.40;;;14.70;;
31910;SDS011;18457;52.432;16.914;2023-08-12T05:52:45;21.90;;;14.00;;
31910;SDS011;18457;52.432;16.914;2023-08-12T05:55:17;17.10;;;13.20;;
31910;SDS011;18457;52.432;16.914;2023-08-12T05:57:49;24.80;;;13.80;;
31910;SDS011;18457;52.432;16.914;2023-08-12T06:00:21;27.50;;;16.20;;
31910;SDS011;18457;52.432;16.914;2023-08-12T06:02:53;19.80;;;13.20;;
31910;SDS011;18457;52.432;16.914;2023-08-12T06:05:24;14.00;;;9.30;;
31910;SDS011;18457;52.432;16.914;2023-08-12T06:07:56;20.70;;;11.80;;
31910;SDS011;18457;52.432;16.914;2023-08-12T06:10:28;14.20;;;10.80;;
31910;SDS011;18457;52.432;16.914;2023-08-12T06:13:00;15.80;;;12.00;;
31910;SDS011;18457;52.432;16.914;2023-08-12T06:15:32;18.30;;;11.80;;
31910;SDS011;18457;52.432;16.914;2023-08-12T06:18:05;17.60;;;11.50;;
31910;SDS011;18457;52.432;16.914;2023-08-12T06:20:37;14.50;;;11.30;;
31910;SDS011;18457;52.432;16.914;2023-08-12T06:23:09;14.60;;;10.80;;
31910;SDS011;18457;52.432;16.914;2023-08-12T06:25:40;18.60;;;10.70;;
31910;SDS011;18457;52.432;16.914;2023-08-12T06:28:12;16.80;;;10.40;;
31910;SDS011;18457;52.432;16.914;2023-08-12T06:30:45;13.90;;;10.10;;
31910;SDS011;18457;52.432;16.914;2023-08-12T06:33:18;17.00;;;10.00;;
31910;SDS011;18457;52.432;16.914;2023-08-12T06:35:51;17.30;;;10.50;;
31910;SDS011;18457;52.432;16.914;2023-08-12T06:38:22;16.30;;;10.70;;
31910;SDS011;18457;52.432;16.914;2023-08-12T06:40:54;14.50;;;9.00;;
31910;SDS011;18457;52.432;16.914;2023-08-12T06:43:51;14.00;;;9.50;;
31910;SDS011;18457;52.432;16.914;2023-08-12T06:46:22;16.00;;;9.80;;
31910;SDS011;18457;52.432;16.914;2023-08-12T06:48:54;13.40;;;9.50;;
31910;SDS011;18457;52.432;16.914;2023-08-12T06:51:27;14.60;;;10.20;;
31910;SDS011;18457;52.432;16.914;2023-08-12T06:56:30;15.50;;;8.90;;
31910;SDS011;18457;52.432;16.914;2023-08-12T06:59:01;10.30;;;8.40;;
31910;SDS011;18457;52.432;16.914;2023-08-12T07:01:33;14.90;;;8.90;;
31910;SDS011;18457;52.432;16.914;2023-08-12T07:04:05;17.80;;;10.00;;
31910;SDS011;18457;52.432;16.914;2023-08-12T07:06:37;12.30;;;8.10;;
31910;SDS011;18457;52.432;16.914;2023-08-12T07:09:09;11.00;;;8.60;;
31910;SDS011;18457;52.432;16.914;2023-08-12T07:11:41;16.90;;;8.70;;
31910;SDS011;18457;52.432;16.914;2023-08-12T07:14:13;14.90;;;8.00;;
31910;SDS011;18457;52.432;16.914;2023-08-12T07:16:45;12.30;;;8.70;;
31910;SDS011;18457;52.432;16.914;2023-08-12T07:19:17;14.10;;;8.10;;
31910;SDS011;18457;52.432;16.914;2023-08-12T07:21:49;15.50;;;8.70;;
31910;SDS011;18457;52.432;16.914;2023-08-12T07:24:21;14.30;;;8.60;;
31910;SDS011;18457;52.432;16.914;2023-08-12T07:26:53;11.80;;;8.10;;
31910;SDS011;18457;52.432;16.914;2023-08-12T07:29:25;11.00;;;8.10;;
31910;SDS011;18457;52.432;16.914;2023-08-12T07:31:57;11.40;;;9.00;;
31910;SDS011;18457;52.432;16.914;2023-08-12T07:34:29;13.20;;;7.50;;
31910;SDS011;18457;52.432;16.914;2023-08-12T07:37:01;14.10;;;7.90;;
31910;SDS011;18457;52.432;16.914;2023-08-12T07:39:32;8.60;;;7.70;;
31910;SDS011;18457;52.432;16.914;2023-08-12T07:42:04;9.90;;;7.90;;
31910;SDS011;18457;52.432;16.914;2023-08-12T07:44:37;13.30;;;7.50;;
31910;SDS011;18457;52.432;16.914;2023-08-12T07:47:09;11.00;;;7.60;;
31910;SDS011;18457;52.432;16.914;2023-08-12T07:49:41;11.80;;;7.80;;
31910;SDS011;18457;52.432;16.914;2023-08-12T07:52:13;9.80;;;7.30;;
31910;SDS011;18457;52.432;16.914;2023-08-12T07:54:44;9.70;;;7.20;;
31910;SDS011;18457;52.432;16.914;2023-08-12T07:57:16;10.80;;;7.10;;
31910;SDS011;18457;52.432;16.914;2023-08-12T07:59:50;13.10;;;7.60;;
31910;SDS011;18457;52.432;16.914;2023-08-12T08:02:22;12.00;;;7.30;;
31910;SDS011;18457;52.432;16.914;2023-08-12T08:04:54;10.60;;;7.80;;
31910;SDS011;18457;52.432;16.914;2023-08-12T08:07:26;14.20;;;6.90;;
31910;SDS011;18457;52.432;16.914;2023-08-12T08:09:58;13.80;;;7.80;;
31910;SDS011;18457;52.432;16.914;2023-08-12T08:12:30;10.40;;;7.20;;
31910;SDS011;18457;52.432;16.914;2023-08-12T08:15:02;9.70;;;7.10;;
31910;SDS011;18457;52.432;16.914;2023-08-12T08:17:35;9.50;;;7.10;;
31910;SDS011;18457;52.432;16.914;2023-08-12T08:22:39;7.70;;;6.40;;
31910;SDS011;18457;52.432;16.914;2023-08-12T08:25:12;9.40;;;6.30;;
31910;SDS011;18457;52.432;16.914;2023-08-12T08:27:44;7.10;;;6.20;;
31910;SDS011;18457;52.432;16.914;2023-08-12T08:30:16;8.10;;;7.20;;
31910;SDS011;18457;52.432;16.914;2023-08-12T08:32:48;10.70;;;6.50;;
31910;SDS011;18457;52.432;16.914;2023-08-12T08:35:20;9.30;;;6.70;;
31910;SDS011;18457;52.432;16.914;2023-08-12T08:37:52;11.50;;;6.20;;
31910;SDS011;18457;52.432;16.914;2023-08-12T08:40:24;9.80;;;5.80;;
31910;SDS011;18457;52.432;16.914;2023-08-12T08:42:58;10.00;;;5.60;;
31910;SDS011;18457;52.432;16.914;2023-08-12T08:45:33;10.90;;;6.70;;
31910;SDS011;18457;52.432;16.914;2023-08-12T08:48:05;9.70;;;5.60;;
31910;SDS011;18457;52.432;16.914;2023-08-12T08:50:38;10.30;;;6.30;;
31910;SDS011;18457;52.432;16.914;2023-08-12T08:53:12;9.20;;;6.20;;
31910;SDS011;18457;52.432;16.914;2023-08-12T08:55:45;7.30;;;6.20;;
31910;SDS011;18457;52.432;16.914;2023-08-12T08:58:17;6.60;;;5.20;;
31910;SDS011;18457;52.432;16.914;2023-08-12T09:00:53;8.70;;;5.30;;
31910;SDS011;18457;52.432;16.914;2023-08-12T09:03:25;9.50;;;6.30;;
31910;SDS011;18457;52.432;16.914;2023-08-12T09:05:57;8.10;;;5.60;;
31910;SDS011;18457;52.432;16.914;2023-08-12T09:08:54;7.70;;;5.50;;
31910;SDS011;18457;52.432;16.914;2023-08-12T09:11:26;5.60;;;4.90;;
31910;SDS011;18457;52.432;16.914;2023-08-12T09:13:59;9.20;;;5.10;;
31910;SDS011;18457;52.432;16.914;2023-08-12T09:16:30;7.70;;;5.20;;
31910;SDS011;18457;52.432;16.914;2023-08-12T09:21:33;10.10;;;4.70;;
31910;SDS011;18457;52.432;16.914;2023-08-12T09:24:07;16.60;;;5.40;;
31910;SDS011;18457;52.432;16.914;2023-08-12T09:26:39;7.40;;;5.10;;
31910;SDS011;18457;52.432;16.914;2023-08-12T09:29:13;5.90;;;4.90;;
31910;SDS011;18457;52.432;16.914;2023-08-12T09:31:45;7.00;;;5.40;;
31910;SDS011;18457;52.432;16.914;2023-08-12T09:34:17;6.70;;;5.40;;
31910;SDS011;18457;52.432;16.914;2023-08-12T09:36:49;10.40;;;4.90;;
31910;SDS011;18457;52.432;16.914;2023-08-12T09:39:21;6.50;;;4.80;;
31910;SDS011;18457;52.432;16.914;2023-08-12T09:41:53;5.40;;;4.60;;
31910;SDS011;18457;52.432;16.914;2023-08-12T09:44:25;8.50;;;5.40;;
31910;SDS011;18457;52.432;16.914;2023-08-12T09:47:00;6.10;;;5.00;;
31910;SDS011;18457;52.432;16.914;2023-08-12T09:49:32;7.60;;;4.40;;
31910;SDS011;18457;52.432;16.914;2023-08-12T09:52:05;7.70;;;5.40;;
31910;SDS011;18457;52.432;16.914;2023-08-12T09:54:38;5.40;;;4.90;;
31910;SDS011;18457;52.432;16.914;2023-08-12T09:57:11;8.50;;;5.20;;
31910;SDS011;18457;52.432;16.914;2023-08-12T09:59:47;6.00;;;4.90;;
31910;SDS011;18457;52.432;16.914;2023-08-12T10:02:20;6.60;;;4.90;;
31910;SDS011;18457;52.432;16.914;2023-08-12T10:04:53;8.80;;;6.00;;
31910;SDS011;18457;52.432;16.914;2023-08-12T10:07:26;9.90;;;4.80;;
31910;SDS011;18457;52.432;16.914;2023-08-12T10:09:58;6.30;;;4.60;;
31910;SDS011;18457;52.432;16.914;2023-08-12T10:12:31;6.60;;;5.80;;
31910;SDS011;18457;52.432;16.914;2023-08-12T10:15:04;9.00;;;5.70;;
31910;SDS011;18457;52.432;16.914;2023-08-12T10:17:37;8.30;;;4.90;;
31910;SDS011;18457;52.432;16.914;2023-08-12T10:20:14;7.30;;;5.00;;
31910;SDS011;18457;52.432;16.914;2023-08-12T10:22:51;6.50;;;4.50;;
31910;SDS011;18457;52.432;16.914;2023-08-12T10:25:24;8.20;;;4.60;;
31910;SDS011;18457;52.432;16.914;2023-08-12T10:28:00;5.20;;;4.70;;
31910;SDS011;18457;52.432;16.914;2023-08-12T10:30:32;5.90;;;4.30;;
31910;SDS011;18457;52.432;16.914;2023-08-12T10:33:05;5.50;;;4.50;;
31910;SDS011;18457;52.432;16.914;2023-08-12T10:35:46;9.00;;;4.50;;
31910;SDS011;18457;52.432;16.914;2023-08-12T10:38:19;8.90;;;3.90;;
31910;SDS011;18457;52.432;16.914;2023-08-12T10:40:55;6.90;;;4.40;;
31910;SDS011;18457;52.432;16.914;2023-08-12T10:43:50;6.90;;;4.60;;
31910;SDS011;18457;52.432;16.914;2023-08-12T10:46:28;5.90;;;4.50;;
31910;SDS011;18457;52.432;16.914;2023-08-12T10:49:05;6.40;;;4.30;;
31910;SDS011;18457;52.432;16.914;2023-08-12T10:51:40;6.90;;;4.40;;
31910;SDS011;18457;52.432;16.914;2023-08-12T10:54:16;6.80;;;4.20;;
31910;SDS011;18457;52.432;16.914;2023-08-12T10:57:09;12.60;;;4.90;;
31910;SDS011;18457;52.432;16.914;2023-08-12T10:59:52;9.30;;;4.80;;
31910;SDS011;18457;52.432;16.914;2023-08-12T11:02:28;5.20;;;4.10;;
31910;SDS011;18457;52.432;16.914;2023-08-12T11:05:02;8.00;;;4.00;;
31910;SDS011;18457;52.432;16.914;2023-08-12T11:07:39;6.10;;;4.40;;
31910;SDS011;18457;52.432;16.914;2023-08-12T11:10:12;6.40;;;5.00;;
31910;SDS011;18457;52.432;16.914;2023-08-12T11:12:54;4.50;;;4.00;;
31910;SDS011;18457;52.432;16.914;2023-08-12T11:15:31;8.30;;;4.70;;
31910;SDS011;18457;52.432;16.914;2023-08-12T11:18:06;5.90;;;4.80;;
31910;SDS011;18457;52.432;16.914;2023-08-12T11:20:39;5.10;;;4.30;;
31910;SDS011;18457;52.432;16.914;2023-08-12T11:23:11;6.60;;;4.60;;
31910;SDS011;18457;52.432;16.914;2023-08-12T11:25:44;5.70;;;4.70;;
31910;SDS011;18457;52.432;16.914;2023-08-12T11:28:19;5.70;;;4.40;;
31910;SDS011;18457;52.432;16.914;2023-08-12T11:30:51;8.60;;;4.20;;
31910;SDS011;18457;52.432;16.914;2023-08-12T11:33:23;8.40;;;5.10;;
31910;SDS011;18457;52.432;16.914;2023-08-12T11:35:55;4.80;;;4.30;;
31910;SDS011;18457;52.432;16.914;2023-08-12T11:38:51;7.70;;;3.80;;
31910;SDS011;18457;52.432;16.914;2023-08-12T11:41:23;6.50;;;3.70;;
31910;SDS011;18457;52.432;16.914;2023-08-12T11:43:57;6.00;;;3.70;;
31910;SDS011;18457;52.432;16.914;2023-08-12T11:46:28;7.30;;;4.30;;
31910;SDS011;18457;52.432;16.914;2023-08-12T11:49:02;4.10;;;3.70;;
31910;SDS011;18457;52.432;16.914;2023-08-12T11:51:34;4.70;;;4.30;;
31910;SDS011;18457;52.432;16.914;2023-08-12T11:54:06;4.50;;;4.00;;
31910;SDS011;18457;52.432;16.914;2023-08-12T11:56:38;4.90;;;4.00;;
31910;SDS011;18457;52.432;16.914;2023-08-12T11:59:10;7.90;;;4.20;;
31910;SDS011;18457;52.432;16.914;2023-08-12T12:01:45;9.70;;;4.80;;
31910;SDS011;18457;52.432;16.914;2023-08-12T12:04:20;4.70;;;4.00;;
31910;SDS011;18457;52.432;16.914;2023-08-12T12:06:52;7.40;;;3.70;;
31910;SDS011;18457;52.432;16.914;2023-08-12T12:09:24;4.30;;;3.50;;
31910;SDS011;18457;52.432;16.914;2023-08-12T12:11:56;4.60;;;3.60;;
31910;SDS011;18457;52.432;16.914;2023-08-12T12:14:28;7.40;;;4.40;;
31910;SDS011;18457;52.432;16.914;2023-08-12T12:17:00;9.60;;;4.50;;
31910;SDS011;18457;52.432;16.914;2023-08-12T12:19:40;5.70;;;3.40;;
31910;SDS011;18457;52.432;16.914;2023-08-12T12:22:13;4.10;;;3.70;;
31910;SDS011;18457;52.432;16.914;2023-08-12T12:24:45;6.80;;;4.20;;
31910;SDS011;18457;52.432;16.914;2023-08-12T12:27:17;4.10;;;3.70;;
31910;SDS011;18457;52.432;16.914;2023-08-12T12:29:49;5.50;;;3.70;;
31910;SDS011;18457;52.432;16.914;2023-08-12T12:32:21;5.60;;;3.80;;
31910;SDS011;18457;52.432;16.914;2023-08-12T12:34:53;4.70;;;4.10;;
31910;SDS011;18457;52.432;16.914;2023-08-12T12:37:25;7.00;;;4.10;;
31910;SDS011;18457;52.432;16.914;2023-08-12T12:39:57;6.30;;;4.10;;
31910;SDS011;18457;52.432;16.914;2023-08-12T12:45:00;5.80;;;4.00;;
31910;SDS011;18457;52.432;16.914;2023-08-12T12:47:32;5.70;;;4.60;;
31910;SDS011;18457;52.432;16.914;2023-08-12T12:50:05;6.20;;;4.00;;
31910;SDS011;18457;52.432;16.914;2023-08-12T12:52:38;8.90;;;4.30;;
31910;SDS011;18457;52.432;16.914;2023-08-12T12:55:13;7.40;;;3.80;;
31910;SDS011;18457;52.432;16.914;2023-08-12T12:57:45;5.50;;;3.90;;
31910;SDS011;18457;52.432;16.914;2023-08-12T13:00:17;4.40;;;3.70;;
31910;SDS011;18457;52.432;16.914;2023-08-12T13:02:49;6.20;;;3.60;;
31910;SDS011;18457;52.432;16.914;2023-08-12T13:05:22;6.50;;;3.90;;
31910;SDS011;18457;52.432;16.914;2023-08-12T13:07:54;6.00;;;3.20;;
31910;SDS011;18457;52.432;16.914;2023-08-12T13:10:26;7.50;;;4.40;;
31910;SDS011;18457;52.432;16.914;2023-08-12T13:12:58;6.80;;;4.10;;
31910;SDS011;18457;52.432;16.914;2023-08-12T13:15:29;6.60;;;3.60;;
31910;SDS011;18457;52.432;16.914;2023-08-12T13:18:04;6.80;;;5.00;;
31910;SDS011;18457;52.432;16.914;2023-08-12T13:23:06;9.30;;;4.10;;
31910;SDS011;18457;52.432;16.914;2023-08-12T13:25:38;6.50;;;3.90;;
31910;SDS011;18457;52.432;16.914;2023-08-12T13:28:11;6.10;;;3.70;;
31910;SDS011;18457;52.432;16.914;2023-08-12T13:30:43;9.20;;;4.00;;
31910;SDS011;18457;52.432;16.914;2023-08-12T13:33:16;5.60;;;3.70;;
31910;SDS011;18457;52.432;16.914;2023-08-12T13:38:18;5.60;;;3.60;;
31910;SDS011;18457;52.432;16.914;2023-08-12T13:40:50;5.80;;;4.40;;
31910;SDS011;18457;52.432;16.914;2023-08-12T13:43:22;5.90;;;3.90;;
31910;SDS011;18457;52.432;16.914;2023-08-12T13:45:54;5.20;;;3.90;;
31910;SDS011;18457;52.432;16.914;2023-08-12T13:48:53;4.90;;;3.60;;
31910;SDS011;18457;52.432;16.914;2023-08-12T13:51:25;5.40;;;4.50;;
31910;SDS011;18457;52.432;16.914;2023-08-12T13:53:58;5.40;;;4.50;;
31910;SDS011;18457;52.432;16.914;2023-08-12T13:56:29;10.00;;;4.00;;
31910;SDS011;18457;52.432;16.914;2023-08-12T13:59:01;6.70;;;4.50;;
31910;SDS011;18457;52.432;16.914;2023-08-12T14:01:33;4.20;;;3.80;;
31910;SDS011;18457;52.432;16.914;2023-08-12T14:04:05;5.40;;;4.70;;
31910;SDS011;18457;52.432;16.914;2023-08-12T14:06:37;6.70;;;4.40;;
31910;SDS011;18457;52.432;16.914;2023-08-12T14:09:09;33.70;;;11.00;;
31910;SDS011;18457;52.432;16.914;2023-08-12T14:11:43;15.70;;;6.10;;
31910;SDS011;18457;52.432;16.914;2023-08-12T14:14:14;30.60;;;8.20;;
31910;SDS011;18457;52.432;16.914;2023-08-12T14:16:47;13.10;;;6.20;;
31910;SDS011;18457;52.432;16.914;2023-08-12T14:19:19;10.50;;;6.20;;
31910;SDS011;18457;52.432;16.914;2023-08-12T14:21:51;11.80;;;5.90;;
31910;SDS011;18457;52.432;16.914;2023-08-12T14:24:23;7.20;;;5.40;;
31910;SDS011;18457;52.432;16.914;2023-08-12T14:26:55;18.00;;;6.50;;
31910;SDS011;18457;52.432;16.914;2023-08-12T14:29:28;9.60;;;5.40;;
31910;SDS011;18457;52.432;16.914;2023-08-12T14:32:00;13.20;;;5.90;;
31910;SDS011;18457;52.432;16.914;2023-08-12T14:34:32;10.50;;;6.10;;
31910;SDS011;18457;52.432;16.914;2023-08-12T14:37:06;7.20;;;5.10;;
31910;SDS011;18457;52.432;16.914;2023-08-12T14:39:37;9.10;;;5.00;;
31910;SDS011;18457;52.432;16.914;2023-08-12T14:42:09;6.90;;;5.00;;
31910;SDS011;18457;52.432;16.914;2023-08-12T14:44:41;7.60;;;5.20;;
31910;SDS011;18457;52.432;16.914;2023-08-12T14:47:13;7.00;;;4.70;;
31910;SDS011;18457;52.432;16.914;2023-08-12T14:49:45;7.90;;;4.90;;
31910;SDS011;18457;52.432;16.914;2023-08-12T14:52:19;6.10;;;4.70;;
31910;SDS011;18457;52.432;16.914;2023-08-12T14:57:21;6.80;;;4.80;;
31910;SDS011;18457;52.432;16.914;2023-08-12T14:59:53;8.20;;;5.00;;
31910;SDS011;18457;52.432;16.914;2023-08-12T15:02:25;4.80;;;3.80;;
31910;SDS011;18457;52.432;16.914;2023-08-12T15:05:00;11.30;;;4.60;;
31910;SDS011;18457;52.432;16.914;2023-08-12T15:07:32;6.70;;;4.90;;
31910;SDS011;18457;52.432;16.914;2023-08-12T15:10:05;9.80;;;4.70;;
31910;SDS011;18457;52.432;16.914;2023-08-12T15:12:37;5.30;;;4.40;;
31910;SDS011;18457;52.432;16.914;2023-08-12T15:15:09;7.30;;;5.10;;
31910;SDS011;18457;52.432;16.914;2023-08-12T15:17:41;7.70;;;4.80;;
31910;SDS011;18457;52.432;16.914;2023-08-12T15:20:13;7.30;;;4.50;;
31910;SDS011;18457;52.432;16.914;2023-08-12T15:22:45;6.30;;;4.40;;
31910;SDS011;18457;52.432;16.914;2023-08-12T15:25:17;5.60;;;5.10;;
31910;SDS011;18457;52.432;16.914;2023-08-12T15:27:49;6.40;;;3.80;;
31910;SDS011;18457;52.432;16.914;2023-08-12T15:30:21;5.70;;;4.10;;